sensor_id;sensor_type;location;lat;lon;timestamp;temperature;humidity
37222;DHT22;23119;51.842;-2.230;2022-08-19T00:01:35;20.20;99.90
37222;DHT22;23119;51.842;-2.230;2022-08-19T00:04:03;20.20;99.90
37222;DHT22;23119;51.842;-2.230;2022-08-19T00:06:30;20.20;99.90
37222;DHT22;23119;51.842;-2.230;2022-08-19T00:09:02;20.20;99.90
37222;DHT22;23119;51.842;-2.230;2022-08-19T00:11:28;20.20;99.90
37222;DHT22;23119;51.842;-2.230;2022-08-19T00:13:57;20.20;99.90
37222;DHT22;23119;51.842;-2.230;2022-08-19T00:16:28;20.20;99.90
37222;DHT22;23119;51.842;-2.230;2022-08-19T00:18:56;20.20;99.90
37222;DHT22;23119;51.842;-2.230;2022-08-19T00:21:25;20.20;99.90
37222;DHT22;23119;51.842;-2.230;2022-08-19T00:24:00;20.30;99.90
37222;DHT22;23119;51.842;-2.230;2022-08-19T00:26:28;20.30;99.90
37222;DHT22;23119;51.842;-2.230;2022-08-19T00:28:55;20.20;99.90
37222;DHT22;23119;51.842;-2.230;2022-08-19T00:31:23;20.30;99.90
37222;DHT22;23119;51.842;-2.230;2022-08-19T00:33:50;20.30;99.90
37222;DHT22;23119;51.842;-2.230;2022-08-19T00:36:21;20.30;99.90
37222;DHT22;23119;51.842;-2.230;2022-08-19T00:38:51;20.30;99.90
37222;DHT22;23119;51.842;-2.230;2022-08-19T00:41:19;20.20;99.90
37222;DHT22;23119;51.842;-2.230;2022-08-19T00:44:10;20.20;99.90
37222;DHT22;23119;51.842;-2.230;2022-08-19T00:46:38;20.20;99.90
37222;DHT22;23119;51.842;-2.230;2022-08-19T00:49:16;20.30;99.90
37222;DHT22;23119;51.842;-2.230;2022-08-19T00:51:50;20.30;99.90
37222;DHT22;23119;51.842;-2.230;2022-08-19T00:54:23;20.20;99.90
37222;DHT22;23119;51.842;-2.230;2022-08-19T00:56:54;20.20;99.90
37222;DHT22;23119;51.842;-2.230;2022-08-19T00:59:20;20.20;99.90
37222;DHT22;23119;51.842;-2.230;2022-08-19T01:01:46;20.20;99.90
37222;DHT22;23119;51.842;-2.230;2022-08-19T01:04:12;20.20;99.90
37222;DHT22;23119;51.842;-2.230;2022-08-19T01:06:40;20.20;99.90
37222;DHT22;23119;51.842;-2.230;2022-08-19T01:09:07;20.20;99.90
37222;DHT22;23119;51.842;-2.230;2022-08-19T01:11:39;20.20;99.90
37222;DHT22;23119;51.842;-2.230;2022-08-19T01:14:09;20.20;99.90
37222;DHT22;23119;51.842;-2.230;2022-08-19T01:16:35;20.10;99.90
37222;DHT22;23119;51.842;-2.230;2022-08-19T01:19:16;20.20;99.90
37222;DHT22;23119;51.842;-2.230;2022-08-19T01:21:55;20.20;99.90
37222;DHT22;23119;51.842;-2.230;2022-08-19T01:24:23;20.20;99.90
37222;DHT22;23119;51.842;-2.230;2022-08-19T01:26:52;20.20;99.90
37222;DHT22;23119;51.842;-2.230;2022-08-19T01:29:18;20.20;99.90
37222;DHT22;23119;51.842;-2.230;2022-08-19T01:32:11;20.30;99.90
37222;DHT22;23119;51.842;-2.230;2022-08-19T01:34:40;20.20;99.90
37222;DHT22;23119;51.842;-2.230;2022-08-19T01:37:11;20.20;99.90
37222;DHT22;23119;51.842;-2.230;2022-08-19T01:39:40;20.20;99.90
37222;DHT22;23119;51.842;-2.230;2022-08-19T01:42:07;20.10;99.90
37222;DHT22;23119;51.842;-2.230;2022-08-19T01:44:36;20.10;99.90
37222;DHT22;23119;51.842;-2.230;2022-08-19T01:47:03;20.10;99.90
37222;DHT22;23119;51.842;-2.230;2022-08-19T01:49:29;20.00;99.90
37222;DHT22;23119;51.842;-2.230;2022-08-19T01:51:55;20.10;99.90
37222;DHT22;23119;51.842;-2.230;2022-08-19T01:54:24;20.00;99.90
37222;DHT22;23119;51.842;-2.230;2022-08-19T01:56:56;20.00;99.90
37222;DHT22;23119;51.842;-2.230;2022-08-19T01:59:23;20.00;99.90
37222;DHT22;23119;51.842;-2.230;2022-08-19T02:01:49;20.00;99.90
37222;DHT22;23119;51.842;-2.230;2022-08-19T02:04:17;20.00;99.90
37222;DHT22;23119;51.842;-2.230;2022-08-19T02:06:46;20.00;99.90
37222;DHT22;23119;51.842;-2.230;2022-08-19T02:09:16;19.90;99.90
37222;DHT22;23119;51.842;-2.230;2022-08-19T02:11:44;19.90;99.90
37222;DHT22;23119;51.842;-2.230;2022-08-19T02:14:21;19.80;99.90
37222;DHT22;23119;51.842;-2.230;2022-08-19T02:16:47;20.00;99.90
37222;DHT22;23119;51.842;-2.230;2022-08-19T02:19:15;19.70;99.90
37222;DHT22;23119;51.842;-2.230;2022-08-19T02:21:41;19.70;99.90
37222;DHT22;23119;51.842;-2.230;2022-08-19T02:24:09;19.60;99.90
37222;DHT22;23119;51.842;-2.230;2022-08-19T02:26:35;19.60;99.90
37222;DHT22;23119;51.842;-2.230;2022-08-19T02:29:00;19.50;99.90
37222;DHT22;23119;51.842;-2.230;2022-08-19T02:31:29;19.50;99.90
37222;DHT22;23119;51.842;-2.230;2022-08-19T02:33:59;19.40;99.90
37222;DHT22;23119;51.842;-2.230;2022-08-19T02:36:25;19.40;99.90
37222;DHT22;23119;51.842;-2.230;2022-08-19T02:38:59;19.30;99.90
37222;DHT22;23119;51.842;-2.230;2022-08-19T02:41:30;19.30;99.90
37222;DHT22;23119;51.842;-2.230;2022-08-19T02:44:02;19.20;99.90
37222;DHT22;23119;51.842;-2.230;2022-08-19T02:46:31;19.20;99.90
37222;DHT22;23119;51.842;-2.230;2022-08-19T02:49:05;19.10;99.90
37222;DHT22;23119;51.842;-2.230;2022-08-19T02:51:40;19.10;99.90
37222;DHT22;23119;51.842;-2.230;2022-08-19T02:54:11;19.10;99.90
37222;DHT22;23119;51.842;-2.230;2022-08-19T02:56:40;19.10;99.90
37222;DHT22;23119;51.842;-2.230;2022-08-19T02:59:09;19.00;99.90
37222;DHT22;23119;51.842;-2.230;2022-08-19T03:01:35;19.00;99.90
37222;DHT22;23119;51.842;-2.230;2022-08-19T03:04:11;19.00;99.90
37222;DHT22;23119;51.842;-2.230;2022-08-19T03:06:41;19.00;99.90
37222;DHT22;23119;51.842;-2.230;2022-08-19T03:09:10;19.00;99.90
37222;DHT22;23119;51.842;-2.230;2022-08-19T03:11:38;19.00;99.90
37222;DHT22;23119;51.842;-2.230;2022-08-19T03:14:08;19.00;99.90
37222;DHT22;23119;51.842;-2.230;2022-08-19T03:16:46;19.00;99.90
37222;DHT22;23119;51.842;-2.230;2022-08-19T03:19:17;18.90;99.90
37222;DHT22;23119;51.842;-2.230;2022-08-19T03:21:45;19.00;99.90
37222;DHT22;23119;51.842;-2.230;2022-08-19T03:24:12;18.90;99.90
37222;DHT22;23119;51.842;-2.230;2022-08-19T03:26:41;18.80;99.90
37222;DHT22;23119;51.842;-2.230;2022-08-19T03:29:18;18.80;99.90
37222;DHT22;23119;51.842;-2.230;2022-08-19T03:31:45;18.70;99.90
37222;DHT22;23119;51.842;-2.230;2022-08-19T03:34:16;18.70;99.90
37222;DHT22;23119;51.842;-2.230;2022-08-19T03:36:43;18.70;99.90
37222;DHT22;23119;51.842;-2.230;2022-08-19T03:39:16;18.70;99.90
37222;DHT22;23119;51.842;-2.230;2022-08-19T03:41:43;18.60;99.90
37222;DHT22;23119;51.842;-2.230;2022-08-19T03:44:24;18.50;99.90
37222;DHT22;23119;51.842;-2.230;2022-08-19T03:46:52;18.50;99.90
37222;DHT22;23119;51.842;-2.230;2022-08-19T03:49:26;18.50;99.90
37222;DHT22;23119;51.842;-2.230;2022-08-19T03:51:57;18.50;99.90
37222;DHT22;23119;51.842;-2.230;2022-08-19T03:54:25;18.50;99.90
37222;DHT22;23119;51.842;-2.230;2022-08-19T03:56:56;18.50;99.90
37222;DHT22;23119;51.842;-2.230;2022-08-19T03:59:30;18.50;99.90
37222;DHT22;23119;51.842;-2.230;2022-08-19T04:02:02;18.40;99.90
37222;DHT22;23119;51.842;-2.230;2022-08-19T04:04:28;18.40;99.90
37222;DHT22;23119;51.842;-2.230;2022-08-19T04:06:56;18.40;99.90
37222;DHT22;23119;51.842;-2.230;2022-08-19T04:09:22;18.40;99.90
37222;DHT22;23119;51.842;-2.230;2022-08-19T04:11:54;18.40;99.90
37222;DHT22;23119;51.842;-2.230;2022-08-19T04:14:23;18.40;99.90
37222;DHT22;23119;51.842;-2.230;2022-08-19T04:16:52;18.40;99.90
37222;DHT22;23119;51.842;-2.230;2022-08-19T04:19:21;18.40;99.90
37222;DHT22;23119;51.842;-2.230;2022-08-19T04:21:52;18.40;99.90
37222;DHT22;23119;51.842;-2.230;2022-08-19T04:24:22;18.40;99.90
37222;DHT22;23119;51.842;-2.230;2022-08-19T04:26:51;18.30;99.90
37222;DHT22;23119;51.842;-2.230;2022-08-19T04:29:22;18.30;99.90
37222;DHT22;23119;51.842;-2.230;2022-08-19T04:31:50;18.30;99.90
37222;DHT22;23119;51.842;-2.230;2022-08-19T04:34:24;18.30;99.90
37222;DHT22;23119;51.842;-2.230;2022-08-19T04:36:53;18.30;99.90
37222;DHT22;23119;51.842;-2.230;2022-08-19T04:39:27;18.30;99.90
37222;DHT22;23119;51.842;-2.230;2022-08-19T04:42:17;18.30;99.90
37222;DHT22;23119;51.842;-2.230;2022-08-19T04:45:03;18.20;99.90
37222;DHT22;23119;51.842;-2.230;2022-08-19T04:47:33;18.20;99.90
37222;DHT22;23119;51.842;-2.230;2022-08-19T04:50:05;18.20;99.90
37222;DHT22;23119;51.842;-2.230;2022-08-19T04:52:34;18.10;99.90
37222;DHT22;23119;51.842;-2.230;2022-08-19T04:55:02;18.10;99.90
37222;DHT22;23119;51.842;-2.230;2022-08-19T04:57:30;18.10;99.90
37222;DHT22;23119;51.842;-2.230;2022-08-19T04:59:59;18.10;99.90
37222;DHT22;23119;51.842;-2.230;2022-08-19T05:02:25;18.00;99.90
37222;DHT22;23119;51.842;-2.230;2022-08-19T05:04:56;18.00;99.90
37222;DHT22;23119;51.842;-2.230;2022-08-19T05:07:22;18.00;99.90
37222;DHT22;23119;51.842;-2.230;2022-08-19T05:09:48;18.00;99.90
37222;DHT22;23119;51.842;-2.230;2022-08-19T05:12:16;18.00;99.90
37222;DHT22;23119;51.842;-2.230;2022-08-19T05:14:42;17.90;99.90
37222;DHT22;23119;51.842;-2.230;2022-08-19T05:17:10;17.90;99.90
37222;DHT22;23119;51.842;-2.230;2022-08-19T05:19:41;17.90;99.90
37222;DHT22;23119;51.842;-2.230;2022-08-19T05:22:28;18.00;99.90
37222;DHT22;23119;51.842;-2.230;2022-08-19T05:25:08;18.00;99.90
37222;DHT22;23119;51.842;-2.230;2022-08-19T05:27:38;18.00;99.90
37222;DHT22;23119;51.842;-2.230;2022-08-19T05:30:04;18.00;99.90
37222;DHT22;23119;51.842;-2.230;2022-08-19T05:32:30;17.90;99.90
37222;DHT22;23119;51.842;-2.230;2022-08-19T05:35:05;18.10;99.90
37222;DHT22;23119;51.842;-2.230;2022-08-19T05:37:31;18.20;99.90
37222;DHT22;23119;51.842;-2.230;2022-08-19T05:39:57;18.40;99.90
37222;DHT22;23119;51.842;-2.230;2022-08-19T05:42:25;19.10;99.90
37222;DHT22;23119;51.842;-2.230;2022-08-19T05:44:51;20.40;99.90
37222;DHT22;23119;51.842;-2.230;2022-08-19T05:47:17;21.40;99.90
37222;DHT22;23119;51.842;-2.230;2022-08-19T05:49:54;22.00;99.90
37222;DHT22;23119;51.842;-2.230;2022-08-19T05:52:20;22.90;99.90
37222;DHT22;23119;51.842;-2.230;2022-08-19T05:54:51;23.80;99.90
37222;DHT22;23119;51.842;-2.230;2022-08-19T05:57:20;24.70;99.90
37222;DHT22;23119;51.842;-2.230;2022-08-19T05:59:46;25.70;99.90
37222;DHT22;23119;51.842;-2.230;2022-08-19T06:02:13;26.90;99.30
37222;DHT22;23119;51.842;-2.230;2022-08-19T06:04:40;28.20;97.30
37222;DHT22;23119;51.842;-2.230;2022-08-19T06:07:08;29.40;95.00
37222;DHT22;23119;51.842;-2.230;2022-08-19T06:09:36;30.50;92.80
37222;DHT22;23119;51.842;-2.230;2022-08-19T06:12:05;31.50;91.10
37222;DHT22;23119;51.842;-2.230;2022-08-19T06:14:33;31.80;89.30
37222;DHT22;23119;51.842;-2.230;2022-08-19T06:17:00;31.70;88.00
37222;DHT22;23119;51.842;-2.230;2022-08-19T06:19:34;32.40;85.70
37222;DHT22;23119;51.842;-2.230;2022-08-19T06:22:08;33.50;82.00
37222;DHT22;23119;51.842;-2.230;2022-08-19T06:24:34;34.30;79.80
37222;DHT22;23119;51.842;-2.230;2022-08-19T06:27:03;35.20;78.30
37222;DHT22;23119;51.842;-2.230;2022-08-19T06:29:31;36.20;75.30
37222;DHT22;23119;51.842;-2.230;2022-08-19T06:32:00;37.10;73.40
37222;DHT22;23119;51.842;-2.230;2022-08-19T06:34:28;37.80;70.00
37222;DHT22;23119;51.842;-2.230;2022-08-19T06:36:55;38.40;68.70
37222;DHT22;23119;51.842;-2.230;2022-08-19T06:39:28;39.00;67.00
37222;DHT22;23119;51.842;-2.230;2022-08-19T06:41:59;39.60;65.00
37222;DHT22;23119;51.842;-2.230;2022-08-19T06:44:30;40.30;62.30
37222;DHT22;23119;51.842;-2.230;2022-08-19T06:47:08;40.70;62.00
37222;DHT22;23119;51.842;-2.230;2022-08-19T06:49:36;41.40;61.30
37222;DHT22;23119;51.842;-2.230;2022-08-19T06:52:05;41.50;60.00
37222;DHT22;23119;51.842;-2.230;2022-08-19T06:54:34;42.00;59.30
37222;DHT22;23119;51.842;-2.230;2022-08-19T06:57:02;42.40;57.30
37222;DHT22;23119;51.842;-2.230;2022-08-19T06:59:28;42.80;57.50
37222;DHT22;23119;51.842;-2.230;2022-08-19T07:02:00;43.30;56.80
37222;DHT22;23119;51.842;-2.230;2022-08-19T07:04:30;43.60;55.90
37222;DHT22;23119;51.842;-2.230;2022-08-19T07:07:11;44.20;54.80
37222;DHT22;23119;51.842;-2.230;2022-08-19T07:09:40;44.30;51.00
37222;DHT22;23119;51.842;-2.230;2022-08-19T07:12:09;44.50;53.20
37222;DHT22;23119;51.842;-2.230;2022-08-19T07:14:40;44.40;52.20
37222;DHT22;23119;51.842;-2.230;2022-08-19T07:17:10;45.20;50.60
37222;DHT22;23119;51.842;-2.230;2022-08-19T07:19:40;45.50;50.20
37222;DHT22;23119;51.842;-2.230;2022-08-19T07:22:09;45.60;50.50
37222;DHT22;23119;51.842;-2.230;2022-08-19T07:24:36;46.00;49.80
37222;DHT22;23119;51.842;-2.230;2022-08-19T07:27:09;45.80;49.30
37222;DHT22;23119;51.842;-2.230;2022-08-19T07:29:37;46.00;46.40
37222;DHT22;23119;51.842;-2.230;2022-08-19T07:32:08;46.20;48.70
37222;DHT22;23119;51.842;-2.230;2022-08-19T07:34:34;46.40;48.30
37222;DHT22;23119;51.842;-2.230;2022-08-19T07:37:04;46.70;48.00
37222;DHT22;23119;51.842;-2.230;2022-08-19T07:39:38;46.50;47.10
37222;DHT22;23119;51.842;-2.230;2022-08-19T07:42:09;46.70;46.80
37222;DHT22;23119;51.842;-2.230;2022-08-19T07:44:36;46.90;45.40
37222;DHT22;23119;51.842;-2.230;2022-08-19T07:47:03;47.00;46.00
37222;DHT22;23119;51.842;-2.230;2022-08-19T07:49:29;47.00;46.10
37222;DHT22;23119;51.842;-2.230;2022-08-19T07:51:59;47.30;46.00
37222;DHT22;23119;51.842;-2.230;2022-08-19T07:54:28;47.40;45.70
37222;DHT22;23119;51.842;-2.230;2022-08-19T07:56:54;47.60;45.30
37222;DHT22;23119;51.842;-2.230;2022-08-19T07:59:21;47.70;45.20
37222;DHT22;23119;51.842;-2.230;2022-08-19T08:01:47;47.90;44.90
37222;DHT22;23119;51.842;-2.230;2022-08-19T08:04:16;47.70;44.50
37222;DHT22;23119;51.842;-2.230;2022-08-19T08:07:01;47.90;44.40
37222;DHT22;23119;51.842;-2.230;2022-08-19T08:09:46;47.70;44.20
37222;DHT22;23119;51.842;-2.230;2022-08-19T08:12:15;47.80;44.20
37222;DHT22;23119;51.842;-2.230;2022-08-19T08:14:49;47.80;43.80
37222;DHT22;23119;51.842;-2.230;2022-08-19T08:17:23;47.90;42.40
37222;DHT22;23119;51.842;-2.230;2022-08-19T08:19:55;47.80;43.60
37222;DHT22;23119;51.842;-2.230;2022-08-19T08:22:24;47.50;43.10
37222;DHT22;23119;51.842;-2.230;2022-08-19T08:25:15;47.30;42.80
37222;DHT22;23119;51.842;-2.230;2022-08-19T08:27:43;47.20;42.10
37222;DHT22;23119;51.842;-2.230;2022-08-19T08:30:22;47.00;42.90
37222;DHT22;23119;51.842;-2.230;2022-08-19T08:32:49;46.70;42.10
37222;DHT22;23119;51.842;-2.230;2022-08-19T08:35:16;46.50;43.00
37222;DHT22;23119;51.842;-2.230;2022-08-19T08:37:53;46.30;42.80
37222;DHT22;23119;51.842;-2.230;2022-08-19T08:40:27;46.10;42.70
37222;DHT22;23119;51.842;-2.230;2022-08-19T08:48:45;45.00;42.40
37222;DHT22;23119;51.842;-2.230;2022-08-19T08:51:23;44.60;42.00
37222;DHT22;23119;51.842;-2.230;2022-08-19T08:53:55;43.80;42.70
37222;DHT22;23119;51.842;-2.230;2022-08-19T08:56:21;43.10;43.90
37222;DHT22;23119;51.842;-2.230;2022-08-19T08:59:06;42.50;44.40
37222;DHT22;23119;51.842;-2.230;2022-08-19T09:01:34;41.70;44.40
37222;DHT22;23119;51.842;-2.230;2022-08-19T09:04:02;41.00;45.70
37222;DHT22;23119;51.842;-2.230;2022-08-19T09:06:53;40.40;46.20
37222;DHT22;23119;51.842;-2.230;2022-08-19T09:09:30;39.80;45.90
37222;DHT22;23119;51.842;-2.230;2022-08-19T09:15:00;38.40;47.00
37222;DHT22;23119;51.842;-2.230;2022-08-19T09:17:28;37.70;47.60
37222;DHT22;23119;51.842;-2.230;2022-08-19T09:22:40;36.70;49.40
37222;DHT22;23119;51.842;-2.230;2022-08-19T09:25:12;36.20;49.60
37222;DHT22;23119;51.842;-2.230;2022-08-19T09:27:39;35.60;50.00
37222;DHT22;23119;51.842;-2.230;2022-08-19T09:30:10;35.20;50.60
37222;DHT22;23119;51.842;-2.230;2022-08-19T09:32:44;34.50;50.10
37222;DHT22;23119;51.842;-2.230;2022-08-19T09:35:11;33.50;51.00
37222;DHT22;23119;51.842;-2.230;2022-08-19T09:37:44;33.10;51.90
37222;DHT22;23119;51.842;-2.230;2022-08-19T09:40:13;32.80;52.30
37222;DHT22;23119;51.842;-2.230;2022-08-19T09:42:42;32.60;52.30
37222;DHT22;23119;51.842;-2.230;2022-08-19T09:45:28;32.30;52.80
37222;DHT22;23119;51.842;-2.230;2022-08-19T09:47:57;32.00;53.10
37222;DHT22;23119;51.842;-2.230;2022-08-19T09:50:26;31.80;53.60
37222;DHT22;23119;51.842;-2.230;2022-08-19T09:52:59;31.70;54.30
37222;DHT22;23119;51.842;-2.230;2022-08-19T09:55:29;31.80;54.20
37222;DHT22;23119;51.842;-2.230;2022-08-19T09:58:00;31.90;54.70
37222;DHT22;23119;51.842;-2.230;2022-08-19T10:00:29;31.90;54.60
37222;DHT22;23119;51.842;-2.230;2022-08-19T10:02:59;31.80;55.00
37222;DHT22;23119;51.842;-2.230;2022-08-19T10:05:28;31.70;55.00
37222;DHT22;23119;51.842;-2.230;2022-08-19T10:08:15;31.90;54.70
37222;DHT22;23119;51.842;-2.230;2022-08-19T10:10:42;31.90;54.70
37222;DHT22;23119;51.842;-2.230;2022-08-19T10:13:16;31.90;54.80
37222;DHT22;23119;51.842;-2.230;2022-08-19T10:15:42;31.90;55.00
37222;DHT22;23119;51.842;-2.230;2022-08-19T10:18:11;31.70;55.20
37222;DHT22;23119;51.842;-2.230;2022-08-19T10:20:39;31.60;55.50
37222;DHT22;23119;51.842;-2.230;2022-08-19T10:23:09;31.50;55.50
37222;DHT22;23119;51.842;-2.230;2022-08-19T10:25:37;31.30;55.60
37222;DHT22;23119;51.842;-2.230;2022-08-19T10:28:04;31.10;56.00
37222;DHT22;23119;51.842;-2.230;2022-08-19T10:30:35;31.00;56.30
37222;DHT22;23119;51.842;-2.230;2022-08-19T10:33:06;30.90;56.50
37222;DHT22;23119;51.842;-2.230;2022-08-19T10:35:32;31.00;56.70
37222;DHT22;23119;51.842;-2.230;2022-08-19T10:38:00;31.20;56.90
37222;DHT22;23119;51.842;-2.230;2022-08-19T10:40:28;31.50;56.90
37222;DHT22;23119;51.842;-2.230;2022-08-19T10:42:55;31.40;56.70
37222;DHT22;23119;51.842;-2.230;2022-08-19T10:45:24;31.60;56.80
37222;DHT22;23119;51.842;-2.230;2022-08-19T10:47:53;31.50;56.30
37222;DHT22;23119;51.842;-2.230;2022-08-19T10:50:19;31.50;56.60
37222;DHT22;23119;51.842;-2.230;2022-08-19T10:53:06;31.50;56.50
37222;DHT22;23119;51.842;-2.230;2022-08-19T10:55:34;31.60;57.00
37222;DHT22;23119;51.842;-2.230;2022-08-19T10:58:20;31.70;56.90
37222;DHT22;23119;51.842;-2.230;2022-08-19T11:01:00;31.70;56.50
37222;DHT22;23119;51.842;-2.230;2022-08-19T11:03:29;31.50;55.80
37222;DHT22;23119;51.842;-2.230;2022-08-19T11:06:05;31.00;56.80
37222;DHT22;23119;51.842;-2.230;2022-08-19T11:08:34;30.60;57.50
37222;DHT22;23119;51.842;-2.230;2022-08-19T11:11:04;30.30;57.90
37222;DHT22;23119;51.842;-2.230;2022-08-19T11:13:35;30.00;58.40
37222;DHT22;23119;51.842;-2.230;2022-08-19T11:16:10;29.70;58.50
37222;DHT22;23119;51.842;-2.230;2022-08-19T11:18:45;29.50;58.80
37222;DHT22;23119;51.842;-2.230;2022-08-19T11:21:29;29.40;59.50
37222;DHT22;23119;51.842;-2.230;2022-08-19T11:24:04;29.60;59.80
37222;DHT22;23119;51.842;-2.230;2022-08-19T11:26:35;29.80;59.60
37222;DHT22;23119;51.842;-2.230;2022-08-19T11:29:04;29.90;59.30
37222;DHT22;23119;51.842;-2.230;2022-08-19T11:31:36;29.90;59.40
37222;DHT22;23119;51.842;-2.230;2022-08-19T11:34:06;29.80;59.40
37222;DHT22;23119;51.842;-2.230;2022-08-19T11:36:36;29.70;59.70
37222;DHT22;23119;51.842;-2.230;2022-08-19T11:39:08;29.50;59.20
37222;DHT22;23119;51.842;-2.230;2022-08-19T11:41:36;29.30;59.20
37222;DHT22;23119;51.842;-2.230;2022-08-19T11:44:05;29.30;59.30
37222;DHT22;23119;51.842;-2.230;2022-08-19T11:46:37;29.30;59.20
37222;DHT22;23119;51.842;-2.230;2022-08-19T11:49:06;29.60;59.10
37222;DHT22;23119;51.842;-2.230;2022-08-19T11:51:38;29.70;58.50
37222;DHT22;23119;51.842;-2.230;2022-08-19T11:54:14;29.70;58.40
37222;DHT22;23119;51.842;-2.230;2022-08-19T11:56:45;29.80;58.20
37222;DHT22;23119;51.842;-2.230;2022-08-19T11:59:16;29.80;58.10
37222;DHT22;23119;51.842;-2.230;2022-08-19T12:01:47;29.90;57.60
37222;DHT22;23119;51.842;-2.230;2022-08-19T12:04:15;30.00;57.60
37222;DHT22;23119;51.842;-2.230;2022-08-19T12:06:44;30.00;57.30
37222;DHT22;23119;51.842;-2.230;2022-08-19T12:09:11;29.90;56.90
37222;DHT22;23119;51.842;-2.230;2022-08-19T12:11:41;30.00;57.20
37222;DHT22;23119;51.842;-2.230;2022-08-19T12:14:13;29.90;57.00
37222;DHT22;23119;51.842;-2.230;2022-08-19T12:16:49;29.60;56.80
37222;DHT22;23119;51.842;-2.230;2022-08-19T12:19:18;29.40;56.90
37222;DHT22;23119;51.842;-2.230;2022-08-19T12:21:47;29.30;57.10
37222;DHT22;23119;51.842;-2.230;2022-08-19T12:24:18;29.20;57.20
37222;DHT22;23119;51.842;-2.230;2022-08-19T12:26:49;29.20;57.60
37222;DHT22;23119;51.842;-2.230;2022-08-19T12:29:17;29.40;57.50
37222;DHT22;23119;51.842;-2.230;2022-08-19T12:31:43;29.70;56.30
37222;DHT22;23119;51.842;-2.230;2022-08-19T12:34:09;29.90;56.20
37222;DHT22;23119;51.842;-2.230;2022-08-19T12:36:37;30.20;56.00
37222;DHT22;23119;51.842;-2.230;2022-08-19T12:39:06;30.30;55.80
37222;DHT22;23119;51.842;-2.230;2022-08-19T12:41:33;30.30;55.90
37222;DHT22;23119;51.842;-2.230;2022-08-19T12:44:02;30.20;56.20
37222;DHT22;23119;51.842;-2.230;2022-08-19T12:46:31;29.90;56.30
37222;DHT22;23119;51.842;-2.230;2022-08-19T12:48:57;29.60;56.80
37222;DHT22;23119;51.842;-2.230;2022-08-19T12:51:43;29.40;57.10
37222;DHT22;23119;51.842;-2.230;2022-08-19T12:54:11;29.20;57.80
37222;DHT22;23119;51.842;-2.230;2022-08-19T12:56:39;29.10;57.70
37222;DHT22;23119;51.842;-2.230;2022-08-19T12:59:04;29.20;57.50
37222;DHT22;23119;51.842;-2.230;2022-08-19T13:01:34;29.10;57.40
37222;DHT22;23119;51.842;-2.230;2022-08-19T13:04:02;28.90;57.50
37222;DHT22;23119;51.842;-2.230;2022-08-19T13:06:35;29.00;57.70
37222;DHT22;23119;51.842;-2.230;2022-08-19T13:09:02;29.00;57.50
37222;DHT22;23119;51.842;-2.230;2022-08-19T13:11:30;29.20;57.50
37222;DHT22;23119;51.842;-2.230;2022-08-19T13:14:00;29.30;57.60
37222;DHT22;23119;51.842;-2.230;2022-08-19T13:16:33;29.30;57.20
37222;DHT22;23119;51.842;-2.230;2022-08-19T13:18:59;29.40;57.10
37222;DHT22;23119;51.842;-2.230;2022-08-19T13:21:30;29.40;56.90
37222;DHT22;23119;51.842;-2.230;2022-08-19T13:23:56;29.30;56.80
37222;DHT22;23119;51.842;-2.230;2022-08-19T13:26:26;29.20;56.90
37222;DHT22;23119;51.842;-2.230;2022-08-19T13:28:52;29.20;57.00
37222;DHT22;23119;51.842;-2.230;2022-08-19T13:31:40;29.30;57.30
37222;DHT22;23119;51.842;-2.230;2022-08-19T13:34:34;29.40;57.20
37222;DHT22;23119;51.842;-2.230;2022-08-19T13:37:01;29.70;57.20
37222;DHT22;23119;51.842;-2.230;2022-08-19T13:39:30;29.60;56.80
37222;DHT22;23119;51.842;-2.230;2022-08-19T13:41:58;29.30;56.80
37222;DHT22;23119;51.842;-2.230;2022-08-19T13:44:29;29.00;57.00
37222;DHT22;23119;51.842;-2.230;2022-08-19T13:47:02;28.70;57.50
37222;DHT22;23119;51.842;-2.230;2022-08-19T13:49:35;28.70;58.00
37222;DHT22;23119;51.842;-2.230;2022-08-19T13:52:13;28.40;58.00
37222;DHT22;23119;51.842;-2.230;2022-08-19T13:54:40;28.30;58.20
37222;DHT22;23119;51.842;-2.230;2022-08-19T13:57:05;28.10;58.50
37222;DHT22;23119;51.842;-2.230;2022-08-19T13:59:31;27.90;58.50
37222;DHT22;23119;51.842;-2.230;2022-08-19T14:02:03;27.80;59.10
37222;DHT22;23119;51.842;-2.230;2022-08-19T14:04:33;27.70;59.50
37222;DHT22;23119;51.842;-2.230;2022-08-19T14:07:10;27.70;59.60
37222;DHT22;23119;51.842;-2.230;2022-08-19T14:09:53;27.70;59.80
37222;DHT22;23119;51.842;-2.230;2022-08-19T14:12:22;27.60;59.90
37222;DHT22;23119;51.842;-2.230;2022-08-19T14:14:51;27.60;60.20
37222;DHT22;23119;51.842;-2.230;2022-08-19T14:17:23;27.80;60.40
37222;DHT22;23119;51.842;-2.230;2022-08-19T14:19:49;28.00;60.30
37222;DHT22;23119;51.842;-2.230;2022-08-19T14:22:21;28.10;60.20
37222;DHT22;23119;51.842;-2.230;2022-08-19T14:24:50;28.00;60.30
37222;DHT22;23119;51.842;-2.230;2022-08-19T14:27:18;27.80;60.30
37222;DHT22;23119;51.842;-2.230;2022-08-19T14:29:47;27.70;60.40
37222;DHT22;23119;51.842;-2.230;2022-08-19T14:32:12;27.60;60.70
37222;DHT22;23119;51.842;-2.230;2022-08-19T14:34:38;27.40;60.70
37222;DHT22;23119;51.842;-2.230;2022-08-19T14:37:04;27.40;61.00
37222;DHT22;23119;51.842;-2.230;2022-08-19T14:39:34;27.30;61.20
37222;DHT22;23119;51.842;-2.230;2022-08-19T14:42:09;27.30;61.40
37222;DHT22;23119;51.842;-2.230;2022-08-19T14:44:35;27.30;61.70
37222;DHT22;23119;51.842;-2.230;2022-08-19T14:47:04;27.30;61.90
37222;DHT22;23119;51.842;-2.230;2022-08-19T14:49:32;27.30;62.10
37222;DHT22;23119;51.842;-2.230;2022-08-19T14:51:59;27.20;62.10
37222;DHT22;23119;51.842;-2.230;2022-08-19T14:54:25;27.10;61.90
37222;DHT22;23119;51.842;-2.230;2022-08-19T14:56:51;27.10;61.90
37222;DHT22;23119;51.842;-2.230;2022-08-19T14:59:21;26.90;61.90
37222;DHT22;23119;51.842;-2.230;2022-08-19T15:01:53;26.90;62.00
37222;DHT22;23119;51.842;-2.230;2022-08-19T15:04:21;26.90;62.30
37222;DHT22;23119;51.842;-2.230;2022-08-19T15:06:47;26.90;62.50
37222;DHT22;23119;51.842;-2.230;2022-08-19T15:09:16;26.90;62.60
37222;DHT22;23119;51.842;-2.230;2022-08-19T15:11:45;26.80;62.60
37222;DHT22;23119;51.842;-2.230;2022-08-19T15:14:11;26.70;62.70
37222;DHT22;23119;51.842;-2.230;2022-08-19T15:16:41;26.60;62.80
37222;DHT22;23119;51.842;-2.230;2022-08-19T15:19:19;26.60;63.10
37222;DHT22;23119;51.842;-2.230;2022-08-19T15:21:45;26.60;63.70
37222;DHT22;23119;51.842;-2.230;2022-08-19T15:24:14;26.50;63.50
37222;DHT22;23119;51.842;-2.230;2022-08-19T15:26:42;26.40;63.50
37222;DHT22;23119;51.842;-2.230;2022-08-19T15:29:15;26.40;63.70
37222;DHT22;23119;51.842;-2.230;2022-08-19T15:31:41;26.30;63.90
37222;DHT22;23119;51.842;-2.230;2022-08-19T15:34:07;26.20;64.00
37222;DHT22;23119;51.842;-2.230;2022-08-19T15:36:34;26.20;64.20
37222;DHT22;23119;51.842;-2.230;2022-08-19T15:39:00;26.10;64.30
37222;DHT22;23119;51.842;-2.230;2022-08-19T15:41:30;26.10;64.70
37222;DHT22;23119;51.842;-2.230;2022-08-19T15:44:08;26.00;65.00
37222;DHT22;23119;51.842;-2.230;2022-08-19T15:46:44;26.00;64.80